createdAt,value
2019-03-10T00:01:21.362Z,69.60
2019-03-10T00:03:26.764Z,73.80
2019-03-10T00:05:32.032Z,76.10
2019-03-10T00:07:37.584Z,77.40
2019-03-10T00:09:42.951Z,78.10
2019-03-10T00:11:48.135Z,78.40
2019-03-10T00:13:53.403Z,77.80
2019-03-10T00:15:58.772Z,78.00
2019-03-10T00:18:03.964Z,77.30
2019-03-10T00:20:10.969Z,76.10
2019-03-10T00:22:16.337Z,76.00
2019-03-10T00:24:21.803Z,75.90
2019-03-10T00:26:27.193Z,75.70
2019-03-10T00:28:32.378Z,75.30
2019-03-10T00:30:37.683Z,74.50
2019-03-10T00:32:42.955Z,74.60
2019-03-10T00:34:49.485Z,74.00
2019-03-10T00:36:54.681Z,74.20
2019-03-10T00:39:06.132Z,73.40
2019-03-10T00:41:24.911Z,72.60
2019-03-10T00:44:00.420Z,72.40
2019-03-10T00:46:45.461Z,71.90
2019-03-10T00:49:13.304Z,71.30
2019-03-10T00:51:34.421Z,71.30
2019-03-10T00:53:40.075Z,71.10
2019-03-10T00:55:45.279Z,70.40
2019-03-10T00:57:50.657Z,70.20
2019-03-10T00:59:56.215Z,69.10
2019-03-10T01:02:01.880Z,69.50
2019-03-10T01:04:07.108Z,69.80
2019-03-10T01:06:12.300Z,69.60
2019-03-10T01:08:17.860Z,70.00
2019-03-10T01:10:23.239Z,70.50
2019-03-10T01:12:28.423Z,70.60
2019-03-10T01:14:33.620Z,69.80
2019-03-10T01:16:39.205Z,69.90
2019-03-10T01:18:44.409Z,69.80
2019-03-10T01:20:51.347Z,69.40
2019-03-10T01:22:56.639Z,70.10
2019-03-10T01:25:02.400Z,69.90
2019-03-10T01:27:07.673Z,70.20
2019-03-10T01:29:12.881Z,70.50
2019-03-10T01:31:43.956Z,70.90
2019-03-10T01:34:08.791Z,70.70
2019-03-10T01:36:16.046Z,70.10
2019-03-10T01:38:21.187Z,70.10
2019-03-10T01:40:26.553Z,70.70
2019-03-10T01:42:32.207Z,70.10
2019-03-10T01:44:37.567Z,70.10
2019-03-10T01:46:42.940Z,70.20
2019-03-10T01:48:48.210Z,69.20
2019-03-10T01:50:53.472Z,68.60
2019-03-10T01:52:58.850Z,67.90
2019-03-10T01:55:05.781Z,68.40
2019-03-10T01:57:11.243Z,68.20
2019-03-10T01:59:16.511Z,68.80
2019-03-10T02:01:22.304Z,68.50
2019-03-10T02:03:28.064Z,68.60
2019-03-10T02:05:33.259Z,67.90
2019-03-10T02:07:38.529Z,66.30
2019-03-10T02:09:43.726Z,65.30
2019-03-10T02:11:48.979Z,64.50
2019-03-10T02:13:54.123Z,64.30
2019-03-10T02:15:59.485Z,63.70
2019-03-10T02:18:04.891Z,62.10
2019-03-10T02:20:13.457Z,62.40
2019-03-10T02:22:18.652Z,60.70
2019-03-10T02:24:24.294Z,60.30
2019-03-10T02:26:29.725Z,61.00
2019-03-10T02:28:34.921Z,60.40
2019-03-10T02:30:40.320Z,60.20
2019-03-10T02:32:45.680Z,61.00
2019-03-10T02:34:52.317Z,61.10
2019-03-10T02:36:57.589Z,61.50
2019-03-10T02:39:04.127Z,61.50
2019-03-10T02:41:11.092Z,62.00
2019-03-10T02:43:16.472Z,62.50
2019-03-10T02:45:21.828Z,63.00
2019-03-10T02:47:27.296Z,63.30
2019-03-10T02:49:32.495Z,63.50
2019-03-10T02:51:38.065Z,63.50
2019-03-10T02:53:43.268Z,63.50
2019-03-10T02:55:48.465Z,63.20
2019-03-10T02:57:53.648Z,63.40
2019-03-10T02:59:59.077Z,63.90
2019-03-10T03:02:04.346Z,63.70
2019-03-10T03:04:09.994Z,64.30
2019-03-10T03:06:15.163Z,63.60
2019-03-10T03:08:20.543Z,64.30
2019-03-10T03:10:26.692Z,64.50
2019-03-10T03:12:32.052Z,64.10
2019-03-10T03:14:37.329Z,63.50
2019-03-10T03:16:42.633Z,63.20
2019-03-10T03:18:47.821Z,63.40
2019-03-10T03:20:54.091Z,63.80
2019-03-10T03:22:59.459Z,63.30
2019-03-10T03:25:07.095Z,63.00
2019-03-10T03:27:12.310Z,63.20
2019-03-10T03:29:17.497Z,63.10
2019-03-10T03:31:22.701Z,63.30
2019-03-10T03:33:27.910Z,62.50
2019-03-10T03:35:47.363Z,61.20
2019-03-10T03:37:52.554Z,60.90
2019-03-10T03:39:57.894Z,59.90
2019-03-10T03:42:03.371Z,60.30
2019-03-10T03:44:09.028Z,60.70
2019-03-10T03:46:14.247Z,60.00
2019-03-10T03:48:20.617Z,60.60
2019-03-10T03:50:26.090Z,60.80
2019-03-10T03:52:31.353Z,60.80
2019-03-10T03:54:36.615Z,60.40
2019-03-10T03:56:41.821Z,60.50
2019-03-10T03:58:47.414Z,61.10
2019-03-10T04:00:54.240Z,61.70
2019-03-10T04:03:00.420Z,63.00
2019-03-10T04:05:06.453Z,63.90
2019-03-10T04:07:11.644Z,64.60
2019-03-10T04:09:16.937Z,65.00
2019-03-10T04:11:22.113Z,64.60
2019-03-10T04:13:27.307Z,64.50
2019-03-10T04:15:32.510Z,65.20
2019-03-10T04:17:37.776Z,65.60
2019-03-10T04:19:42.979Z,65.90
2019-03-10T04:21:48.348Z,65.70
2019-03-10T04:23:53.565Z,65.90
2019-03-10T04:25:58.958Z,65.50
2019-03-10T04:28:04.149Z,65.30
2019-03-10T04:30:11.764Z,65.60
2019-03-10T04:32:17.552Z,65.50
2019-03-10T04:34:22.744Z,65.80
2019-03-10T04:36:27.939Z,65.70
2019-03-10T04:38:33.148Z,66.10
2019-03-10T04:40:38.507Z,65.90
2019-03-10T04:42:43.707Z,65.70
2019-03-10T04:44:48.943Z,66.40
2019-03-10T04:46:54.132Z,66.30
2019-03-10T04:48:59.492Z,66.10
2019-03-10T04:51:04.716Z,66.10
2019-03-10T04:53:10.965Z,65.60
2019-03-10T04:55:24.075Z,66.20
2019-03-10T04:57:29.343Z,65.60
2019-03-10T04:59:34.473Z,65.60
2019-03-10T05:01:40.112Z,66.60
2019-03-10T05:03:45.488Z,66.00
2019-03-10T05:05:50.756Z,66.60
2019-03-10T05:07:56.020Z,66.90
2019-03-10T05:10:01.407Z,66.40
2019-03-10T05:12:08.428Z,66.60
2019-03-10T05:14:13.633Z,67.00
2019-03-10T05:16:18.999Z,67.00
2019-03-10T05:18:24.187Z,68.10
2019-03-10T05:20:29.852Z,67.50
2019-03-10T05:22:35.224Z,67.70
2019-03-10T05:24:40.420Z,67.60
2019-03-10T05:26:45.800Z,67.50
2019-03-10T05:28:51.088Z,67.30
2019-03-10T05:30:56.852Z,68.00
2019-03-10T05:33:03.326Z,67.80
2019-03-10T05:35:08.621Z,68.30
2019-03-10T05:37:13.825Z,67.90
2019-03-10T05:39:19.023Z,68.40
2019-03-10T05:41:24.251Z,68.40
2019-03-10T05:43:29.615Z,68.00
2019-03-10T05:45:35.576Z,67.60
2019-03-10T05:47:40.824Z,67.60
2019-03-10T05:49:46.101Z,67.50
2019-03-10T05:51:51.471Z,67.50
2019-03-10T05:53:57.049Z,67.50
2019-03-10T05:56:02.333Z,67.20
2019-03-10T05:58:09.000Z,66.80
2019-03-10T06:00:15.498Z,67.70
2019-03-10T06:02:21.169Z,67.30
2019-03-10T06:04:26.544Z,66.90
2019-03-10T06:06:31.816Z,66.40
2019-03-10T06:08:37.375Z,66.80
2019-03-10T06:10:42.579Z,66.70
2019-03-10T06:12:47.825Z,66.40
2019-03-10T06:14:53.287Z,66.30
2019-03-10T06:16:58.548Z,66.90
2019-03-10T06:19:03.763Z,66.70
2019-03-10T06:21:08.961Z,66.70
2019-03-10T06:23:16.142Z,66.70
2019-03-10T06:25:21.432Z,66.10
2019-03-10T06:27:26.816Z,66.50
2019-03-10T06:29:32.022Z,66.30
2019-03-10T06:31:38.100Z,66.60
2019-03-10T06:33:43.476Z,66.20
2019-03-10T06:35:48.675Z,65.70
2019-03-10T06:37:54.268Z,65.10
2019-03-10T06:39:59.640Z,64.50
2019-03-10T06:42:04.879Z,63.60
2019-03-10T06:44:12.576Z,62.90
2019-03-10T06:46:17.736Z,61.90
2019-03-10T06:48:23.313Z,61.80
2019-03-10T06:50:30.156Z,61.80
2019-03-10T06:52:35.400Z,61.80
2019-03-10T06:54:41.084Z,62.00
2019-03-10T06:56:46.711Z,61.20
2019-03-10T06:58:53.571Z,60.00
2019-03-10T07:00:58.765Z,60.40
2019-03-10T07:03:06.096Z,59.80
2019-03-10T07:05:12.955Z,60.30
2019-03-10T07:07:18.156Z,60.00
2019-03-10T07:09:23.353Z,60.50
2019-03-10T07:11:28.638Z,60.90
2019-03-10T07:13:34.600Z,62.00
2019-03-10T07:15:40.094Z,61.50
2019-03-10T07:17:46.988Z,61.80
2019-03-10T07:19:52.464Z,62.30
2019-03-10T07:21:57.728Z,62.90
2019-03-10T07:24:03.167Z,62.70
2019-03-10T07:26:08.303Z,63.30
2019-03-10T07:28:15.147Z,63.90
2019-03-10T07:30:34.181Z,63.70
2019-03-10T07:32:51.928Z,63.70
2019-03-10T07:35:06.375Z,63.40
2019-03-10T07:37:18.971Z,63.90
2019-03-10T07:39:28.797Z,63.40
2019-03-10T07:41:44.578Z,64.10
2019-03-10T07:44:00.206Z,63.60
2019-03-10T07:46:08.917Z,63.90
2019-03-10T07:48:15.752Z,64.50
2019-03-10T07:50:22.868Z,64.00
2019-03-10T07:52:47.853Z,63.80
2019-03-10T07:54:54.872Z,63.50
2019-03-10T07:57:18.460Z,63.40
2019-03-10T07:59:25.572Z,64.10
2019-03-10T08:01:47.893Z,63.00
2019-03-10T08:04:12.813Z,62.60
2019-03-10T08:06:27.591Z,62.50
2019-03-10T08:08:34.503Z,63.20
2019-03-10T08:10:53.394Z,62.70
2019-03-10T08:13:06.159Z,62.30
2019-03-10T08:15:19.045Z,61.60
2019-03-10T08:17:28.648Z,61.20
2019-03-10T08:19:35.506Z,60.40
2019-03-10T08:21:48.281Z,60.40
2019-03-10T08:23:55.136Z,61.60
2019-03-10T08:26:04.932Z,62.30
2019-03-10T08:28:11.951Z,62.30
2019-03-10T08:30:32.631Z,62.90
2019-03-10T08:32:48.361Z,62.80
2019-03-10T08:35:10.289Z,63.00
2019-03-10T08:37:26.491Z,64.20
2019-03-10T08:39:36.104Z,65.00
2019-03-10T08:41:42.996Z,64.30
2019-03-10T08:43:52.745Z,64.50
2019-03-10T08:46:05.469Z,64.80
2019-03-10T08:48:12.476Z,64.50
2019-03-10T08:50:22.544Z,65.60
2019-03-10T08:52:29.401Z,65.00
2019-03-10T08:54:42.269Z,64.60
2019-03-10T08:56:50.072Z,65.00
2019-03-10T08:59:14.500Z,63.80
2019-03-10T09:01:27.279Z,63.60
2019-03-10T09:03:37.074Z,63.30
2019-03-10T09:06:00.218Z,64.40
2019-03-10T09:08:12.880Z,64.40
2019-03-10T09:10:19.726Z,64.20
2019-03-10T09:12:26.744Z,63.40
2019-03-10T09:14:52.063Z,63.00
2019-03-10T09:17:01.671Z,62.50
2019-03-10T09:19:30.979Z,62.50
2019-03-10T09:21:40.521Z,62.50
2019-03-10T09:23:59.312Z,63.40
2019-03-10T09:26:21.940Z,63.80
2019-03-10T09:31:21.428Z,64.00
2019-03-10T09:33:30.935Z,64.90
2019-03-10T09:35:49.694Z,65.20
2019-03-10T09:38:03.809Z,64.70
2019-03-10T09:40:34.355Z,64.30
2019-03-10T09:43:00.479Z,65.00
2019-03-10T09:45:19.485Z,65.50
2019-03-10T09:47:36.854Z,65.50
2019-03-10T09:49:48.132Z,66.10
2019-03-10T09:52:08.042Z,64.90
2019-03-10T09:54:33.272Z,64.70
2019-03-10T09:56:56.686Z,64.50
2019-03-10T09:59:39.051Z,64.50
2019-03-10T10:01:51.590Z,65.50
2019-03-10T10:04:14.953Z,65.50
2019-03-10T10:06:40.320Z,65.10
2019-03-10T10:09:07.099Z,64.60
2019-03-10T10:11:18.122Z,65.20
2019-03-10T10:13:27.985Z,65.10
2019-03-10T10:15:37.274Z,66.10
2019-03-10T10:17:47.349Z,65.80
2019-03-10T10:19:57.560Z,65.90
2019-03-10T10:22:16.505Z,66.60
2019-03-10T10:27:15.505Z,67.80
2019-03-10T10:29:33.737Z,68.10
2019-03-10T10:31:42.341Z,68.20
2019-03-10T10:34:06.245Z,68.60
2019-03-10T10:36:45.459Z,69.00
2019-03-10T10:38:54.396Z,68.20
2019-03-10T10:43:43.043Z,68.10
2019-03-10T10:45:49.881Z,67.90
2019-03-10T10:48:13.975Z,68.10
2019-03-10T10:50:23.872Z,69.00
2019-03-10T10:52:30.781Z,66.80
2019-03-10T10:54:45.395Z,66.60
2019-03-10T10:57:08.859Z,66.10
2019-03-10T10:59:15.765Z,66.00
2019-03-10T11:01:25.564Z,65.90
2019-03-10T11:03:47.496Z,67.50
2019-03-10T11:06:10.624Z,67.90
2019-03-10T11:08:32.087Z,69.50
2019-03-10T11:10:39.394Z,71.40
2019-03-10T11:12:47.383Z,73.60
2019-03-10T11:14:57.176Z,74.00
2019-03-10T11:17:13.427Z,75.80
2019-03-10T11:19:38.212Z,77.00
2019-03-10T11:21:47.064Z,77.50
2019-03-10T11:23:59.689Z,78.70
2019-03-10T11:26:12.492Z,79.70
2019-03-10T11:28:25.108Z,81.20
2019-03-10T11:30:42.221Z,81.30
2019-03-10T11:32:51.956Z,83.10
2019-03-10T11:35:11.380Z,82.80
2019-03-10T11:37:21.228Z,84.20
2019-03-10T11:39:28.112Z,84.90
2019-03-10T11:41:49.893Z,86.60
2019-03-10T11:44:13.096Z,86.30
2019-03-10T11:46:26.329Z,87.60
2019-03-10T11:48:42.011Z,87.70
2019-03-10T11:51:07.258Z,86.00
2019-03-10T11:53:19.510Z,86.20
2019-03-10T11:55:35.963Z,87.20
2019-03-10T11:57:51.611Z,86.90
2019-03-10T11:59:58.469Z,87.90
2019-03-10T12:02:15.894Z,88.00
2019-03-10T12:04:23.152Z,86.60
2019-03-10T12:06:35.893Z,86.30
2019-03-10T12:08:45.432Z,86.80
2019-03-10T12:10:50.648Z,87.40
2019-03-10T12:12:56.025Z,88.40
2019-03-10T12:15:01.221Z,87.70
2019-03-10T12:17:06.771Z,88.60
2019-03-10T12:19:12.146Z,90.00
2019-03-10T12:21:17.616Z,89.80
2019-03-10T12:23:23.236Z,88.70
2019-03-10T12:25:28.427Z,88.50
2019-03-10T12:27:33.624Z,88.90
2019-03-10T12:29:40.559Z,88.90
2019-03-10T12:31:46.329Z,89.50
2019-03-10T12:33:51.692Z,90.20
2019-03-10T12:35:58.052Z,89.80
2019-03-10T12:38:03.429Z,88.70
2019-03-10T12:40:11.312Z,88.20
2019-03-10T12:42:16.537Z,89.10
2019-03-10T12:44:21.740Z,89.10
2019-03-10T12:46:26.950Z,89.40
2019-03-10T12:48:32.179Z,88.40
2019-03-10T12:50:37.847Z,87.00
2019-03-10T12:52:43.059Z,88.60
2019-03-10T12:54:48.288Z,88.50
2019-03-10T12:56:53.495Z,87.70
2019-03-10T12:58:59.652Z,88.30
2019-03-10T13:01:06.541Z,87.50
2019-03-10T13:03:12.024Z,88.30
2019-03-10T13:05:17.308Z,87.90
2019-03-10T13:07:22.523Z,88.40
2019-03-10T13:09:27.724Z,88.40
2019-03-10T13:11:33.294Z,87.70
2019-03-10T13:13:38.672Z,87.80
2019-03-10T13:15:43.877Z,87.50
2019-03-10T13:17:49.344Z,87.80
2019-03-10T13:19:54.723Z,88.30
2019-03-10T13:21:59.998Z,87.40
2019-03-10T13:24:05.370Z,87.30
2019-03-10T13:26:10.588Z,88.10
2019-03-10T13:28:15.962Z,87.30
2019-03-10T13:30:21.170Z,86.90
2019-03-10T13:32:26.406Z,87.00
2019-03-10T13:34:32.048Z,87.90
2019-03-10T13:36:37.253Z,86.90
2019-03-10T13:38:42.848Z,86.90
2019-03-10T13:40:48.211Z,86.80
2019-03-10T13:42:53.459Z,86.30
2019-03-10T13:44:58.622Z,86.40
2019-03-10T13:47:03.828Z,86.50
2019-03-10T13:49:09.024Z,85.90
2019-03-10T13:51:14.611Z,85.50
2019-03-10T13:53:19.890Z,85.10
2019-03-10T13:55:25.108Z,84.20
2019-03-10T13:57:30.392Z,85.00
2019-03-10T13:59:35.972Z,85.40
2019-03-10T14:01:41.245Z,84.60
2019-03-10T14:03:46.827Z,84.50
2019-03-10T14:05:52.216Z,85.10
2019-03-10T14:07:57.588Z,85.40
2019-03-10T14:10:04.056Z,84.40
2019-03-10T14:12:09.327Z,83.90
2019-03-10T14:14:14.536Z,83.80
2019-03-10T14:16:19.748Z,85.00
2019-03-10T14:18:25.163Z,84.40
2019-03-10T14:20:30.315Z,85.00
2019-03-10T14:22:35.898Z,85.00
2019-03-10T14:24:41.113Z,85.50
2019-03-10T14:26:46.317Z,85.80
2019-03-10T14:28:51.527Z,85.70
2019-03-10T14:30:56.735Z,85.40
2019-03-10T14:33:02.207Z,84.60
2019-03-10T14:35:09.532Z,84.40
2019-03-10T14:37:14.911Z,84.40
2019-03-10T14:39:20.188Z,83.90
2019-03-10T14:41:25.568Z,83.80
2019-03-10T14:43:30.771Z,83.70
2019-03-10T14:45:35.968Z,83.90
2019-03-10T14:47:41.244Z,83.40
2019-03-10T14:49:46.511Z,83.40
2019-03-10T14:51:52.083Z,83.10
2019-03-10T14:53:58.285Z,83.00
2019-03-10T14:56:03.484Z,83.10
2019-03-10T14:58:09.151Z,82.90
2019-03-10T15:00:20.460Z,83.00
2019-03-10T15:02:27.149Z,82.90
2019-03-10T15:04:32.712Z,82.60
2019-03-10T15:06:38.652Z,82.90
2019-03-10T15:08:46.514Z,83.10
2019-03-10T15:10:52.816Z,83.10
2019-03-10T15:12:58.192Z,83.30
2019-03-10T15:15:03.632Z,83.40
2019-03-10T15:17:09.124Z,83.80
2019-03-10T15:19:14.321Z,83.70
2019-03-10T15:21:19.806Z,83.60
2019-03-10T15:23:25.184Z,83.60
2019-03-10T15:25:30.623Z,84.10
2019-03-10T15:27:35.823Z,83.60
2019-03-10T15:29:41.060Z,84.00
2019-03-10T15:31:46.255Z,84.00
2019-03-10T15:33:51.452Z,84.20
2019-03-10T15:35:56.740Z,84.60
2019-03-10T15:38:02.107Z,84.80
2019-03-10T15:40:19.356Z,84.60
2019-03-10T15:42:24.764Z,85.00
2019-03-10T15:44:30.221Z,84.70
2019-03-10T15:46:35.700Z,84.60
2019-03-10T15:48:40.914Z,85.00
2019-03-10T15:50:46.116Z,85.40
2019-03-10T15:52:51.315Z,85.70
2019-03-10T15:54:56.592Z,85.70
2019-03-10T15:57:01.952Z,85.80
2019-03-10T15:59:07.148Z,86.20
2019-03-10T16:01:12.629Z,86.10
2019-03-10T16:03:17.824Z,86.20
2019-03-10T16:05:23.056Z,86.50
2019-03-10T16:07:28.255Z,86.40
2019-03-10T16:09:33.456Z,86.50
2019-03-10T16:11:38.672Z,86.60
2019-03-10T16:13:44.056Z,86.90
2019-03-10T16:15:49.435Z,86.80
2019-03-10T16:17:54.821Z,87.10
2019-03-10T16:20:00.282Z,87.10
2019-03-10T16:22:05.780Z,87.20
2019-03-10T16:24:12.227Z,87.30
2019-03-10T16:26:17.423Z,87.50
2019-03-10T16:28:22.699Z,87.80
2019-03-10T16:30:28.751Z,87.90
2019-03-10T16:32:33.949Z,87.90
2019-03-10T16:34:39.328Z,88.00
2019-03-10T16:36:44.708Z,88.10
2019-03-10T16:38:50.080Z,88.10
2019-03-10T16:40:55.652Z,88.10
2019-03-10T16:43:00.869Z,88.20
2019-03-10T16:45:09.320Z,88.20
2019-03-10T16:47:14.607Z,88.10
2019-03-10T16:49:23.032Z,88.20
2019-03-10T16:51:28.399Z,88.10
2019-03-10T16:53:34.054Z,88.30
2019-03-10T16:55:39.566Z,88.30
2019-03-10T16:57:44.867Z,88.50
2019-03-10T16:59:50.114Z,88.50
2019-03-10T17:01:55.455Z,88.70
2019-03-10T17:04:00.737Z,88.90
2019-03-10T17:06:06.121Z,89.30
2019-03-10T17:08:11.557Z,89.40
2019-03-10T17:10:20.853Z,89.70
2019-03-10T17:12:26.205Z,90.00
2019-03-10T17:14:31.952Z,90.50
2019-03-10T17:16:37.396Z,90.40
2019-03-10T17:18:43.954Z,90.00
2019-03-10T17:20:49.303Z,90.00
2019-03-10T17:22:54.585Z,90.20
2019-03-10T17:24:59.849Z,90.50
2019-03-10T17:27:05.246Z,90.80
2019-03-10T17:29:10.670Z,90.90
2019-03-10T17:31:18.055Z,90.60
2019-03-10T17:33:23.411Z,90.70
2019-03-10T17:35:28.663Z,90.60
2019-03-10T17:37:34.110Z,90.80
2019-03-10T17:39:39.315Z,91.00
2019-03-10T17:41:44.527Z,91.00
2019-03-10T17:43:49.731Z,90.70
2019-03-10T17:45:55.117Z,90.90
2019-03-10T17:48:00.697Z,90.80
2019-03-10T17:50:22.885Z,90.80
2019-03-10T17:52:38.786Z,90.80
2019-03-10T17:54:44.677Z,90.60
2019-03-10T17:56:49.935Z,90.50
2019-03-10T17:58:55.361Z,90.50
2019-03-10T18:01:00.695Z,90.50
2019-03-10T18:03:06.285Z,90.40
2019-03-10T18:05:11.792Z,90.30
2019-03-10T18:07:17.002Z,90.20
2019-03-10T18:09:23.163Z,90.20
2019-03-10T18:11:29.480Z,90.20
2019-03-10T18:13:34.852Z,90.10
2019-03-10T18:15:40.227Z,90.10
2019-03-10T18:17:45.512Z,90.10
2019-03-10T18:19:50.792Z,89.80
2019-03-10T18:21:56.281Z,89.80
2019-03-10T18:24:01.513Z,89.60
2019-03-10T18:26:06.711Z,89.40
2019-03-10T18:28:11.917Z,89.10
2019-03-10T18:30:20.575Z,89.00
2019-03-10T18:32:25.784Z,89.40
2019-03-10T18:34:32.866Z,89.30
2019-03-10T18:36:38.140Z,89.30
2019-03-10T18:38:43.684Z,89.40
2019-03-10T18:40:48.893Z,89.50
2019-03-10T18:42:54.176Z,89.20
2019-03-10T18:44:59.380Z,89.00
2019-03-10T18:47:04.587Z,88.70
2019-03-10T18:49:10.286Z,88.20
2019-03-10T18:51:18.996Z,87.60
2019-03-10T18:53:24.476Z,87.30
2019-03-10T18:55:29.856Z,87.30
2019-03-10T18:57:35.133Z,87.40
2019-03-10T18:59:40.333Z,87.30
2019-03-10T19:01:45.711Z,87.30
2019-03-10T19:03:52.216Z,87.50
2019-03-10T19:05:57.684Z,87.60
2019-03-10T19:08:02.888Z,87.60
2019-03-10T19:10:12.838Z,87.20
2019-03-10T19:12:18.091Z,87.00
2019-03-10T19:14:24.861Z,87.20
2019-03-10T19:16:30.441Z,87.00
2019-03-10T19:18:35.708Z,87.30
2019-03-10T19:20:40.984Z,87.40
2019-03-10T19:22:46.488Z,87.10
2019-03-10T19:24:51.697Z,87.40
2019-03-10T19:26:56.969Z,87.20
2019-03-10T19:29:02.257Z,87.00
2019-03-10T19:31:08.433Z,87.00
2019-03-10T19:33:13.703Z,87.00
2019-03-10T19:35:22.310Z,87.00
2019-03-10T19:37:27.528Z,86.70
2019-03-10T19:39:33.072Z,86.30
2019-03-10T19:41:38.340Z,86.40
2019-03-10T19:43:43.693Z,86.30
2019-03-10T19:45:50.708Z,86.50
2019-03-10T19:47:56.102Z,86.60
2019-03-10T19:50:01.476Z,86.60
2019-03-10T19:52:06.848Z,86.30
2019-03-10T19:54:13.600Z,86.60
2019-03-10T19:56:18.942Z,86.40
2019-03-10T19:58:24.288Z,86.20
2019-03-10T20:00:29.780Z,86.10
2019-03-10T20:02:35.078Z,85.80
2019-03-10T20:04:41.216Z,85.50
2019-03-10T20:06:46.428Z,85.80
2019-03-10T20:08:52.404Z,85.30
2019-03-10T20:10:57.632Z,85.20
2019-03-10T20:13:05.791Z,84.80
2019-03-10T20:15:13.612Z,85.00
2019-03-10T20:17:20.052Z,84.70
2019-03-10T20:19:28.873Z,84.70
2019-03-10T20:21:34.183Z,84.80
2019-03-10T20:23:39.516Z,84.80
2019-03-10T20:25:44.891Z,84.90
2019-03-10T20:27:50.160Z,85.10
2019-03-10T20:29:55.371Z,85.50
2019-03-10T20:32:00.778Z,86.40
2019-03-10T20:34:10.015Z,87.20
2019-03-10T20:36:15.556Z,89.50
2019-03-10T20:38:21.032Z,90.40
2019-03-10T20:40:27.652Z,90.50
2019-03-10T20:42:33.212Z,90.90
2019-03-10T20:44:38.440Z,90.90
2019-03-10T20:46:43.639Z,90.00
2019-03-10T20:48:49.012Z,90.40
2019-03-10T20:50:54.345Z,90.30
2019-03-10T20:52:59.603Z,89.10
2019-03-10T20:55:07.620Z,87.60
2019-03-10T20:57:14.713Z,86.50
2019-03-10T20:59:20.081Z,88.40
2019-03-10T21:01:25.552Z,85.60
2019-03-10T21:03:30.864Z,85.40
2019-03-10T21:05:36.942Z,84.30
2019-03-10T21:07:43.767Z,84.70
2019-03-10T21:09:49.164Z,83.50
2019-03-10T21:11:54.608Z,84.00
2019-03-10T21:14:02.913Z,83.60
2019-03-10T21:16:08.287Z,83.60
2019-03-10T21:18:15.626Z,83.10
2019-03-10T21:20:22.021Z,81.90
2019-03-10T21:22:27.287Z,81.90
2019-03-10T21:24:35.689Z,81.20
2019-03-10T21:26:41.160Z,81.40
2019-03-10T21:28:46.441Z,81.60
2019-03-10T21:30:51.641Z,82.60
2019-03-10T21:32:56.920Z,81.50
2019-03-10T21:35:02.239Z,81.20
2019-03-10T21:37:08.525Z,81.60
2019-03-10T21:39:13.943Z,81.80
2019-03-10T21:41:19.247Z,80.60
2019-03-10T21:43:24.436Z,80.20
2019-03-10T21:45:29.830Z,80.30
2019-03-10T21:47:35.208Z,80.80
2019-03-10T21:49:40.678Z,80.90
2019-03-10T21:51:46.047Z,81.70
2019-03-10T21:53:51.534Z,82.80
2019-03-10T21:55:56.902Z,83.40
2019-03-10T21:58:02.176Z,84.80
2019-03-10T22:00:15.028Z,85.30
2019-03-10T22:02:20.400Z,86.10
2019-03-10T22:04:25.867Z,85.20
2019-03-10T22:06:31.550Z,87.90
2019-03-10T22:08:38.004Z,89.00
2019-03-10T22:10:43.343Z,89.50
2019-03-10T22:12:48.655Z,89.20
2019-03-10T22:14:53.857Z,89.80
2019-03-10T22:17:00.136Z,88.60
2019-03-10T22:19:05.420Z,89.20
2019-03-10T22:21:10.615Z,85.80
2019-03-10T22:23:16.885Z,86.30
2019-03-10T22:25:22.389Z,85.10
2019-03-10T22:27:27.656Z,84.60
2019-03-10T22:29:32.852Z,85.00
2019-03-10T22:31:38.232Z,85.80
2019-03-10T22:33:43.425Z,85.30
2019-03-10T22:35:48.619Z,86.20
2019-03-10T22:37:54.199Z,84.50
2019-03-10T22:39:59.400Z,84.10
2019-03-10T22:42:15.503Z,83.40
2019-03-10T22:44:23.571Z,82.50
2019-03-10T22:46:35.766Z,81.30
2019-03-10T22:48:44.541Z,78.60
2019-03-10T22:50:55.340Z,77.30
2019-03-10T22:53:03.068Z,76.20
2019-03-10T22:55:15.697Z,76.80
2019-03-10T22:57:24.172Z,76.60
2019-03-10T22:59:36.358Z,74.10
2019-03-10T23:01:49.753Z,73.70
2019-03-10T23:04:01.242Z,73.30
2019-03-10T23:06:11.486Z,74.70
2019-03-10T23:08:18.799Z,74.20
2019-03-10T23:10:29.526Z,73.30
2019-03-10T23:12:36.452Z,72.50
2019-03-10T23:14:50.292Z,70.50
2019-03-10T23:16:57.251Z,69.30
2019-03-10T23:19:04.188Z,68.50
2019-03-10T23:21:28.393Z,68.30
2019-03-10T23:23:52.216Z,68.00
2019-03-10T23:26:15.528Z,67.10
2019-03-10T23:28:39.587Z,66.30
2019-03-10T23:31:03.597Z,65.50
2019-03-10T23:33:28.800Z,66.60
2019-03-10T23:35:52.468Z,66.10
2019-03-10T23:38:16.515Z,66.60
2019-03-10T23:40:40.435Z,64.40
2019-03-10T23:43:11.925Z,64.70
2019-03-10T23:46:09.120Z,64.50
2019-03-10T23:48:33.249Z,63.80
2019-03-10T23:50:58.948Z,61.40
2019-03-10T23:53:23.145Z,61.00
2019-03-10T23:55:47.089Z,59.60
2019-03-10T23:58:11.168Z,59.50
